Time;durP1;ratioP1;P1;durP2;ratioP2;P2;SDS_P1;SDS_P2;PMS_P1;PMS_P2;Temp;Humidity;BMP_temperature;BMP_pressure;BME280_temperature;BME280_humidity;BME280_pressure;Samples;Min_cycle;Max_cycle;Signal;HPM_P1;HPM_P2
2022/03/22 00:02:44;;;;;;;38.35;22.73;;;;;;;6.49;50.68;101473.72;10596280;27;20043;-62
2022/03/22 00:07:46;;;;;;;32.00;22.48;;;;;;;6.41;50.94;101466.97;10595487;27;20804;-60
2022/03/22 00:12:49;;;;;;;35.15;23.73;;;;;;;6.26;50.91;101471.56;10596011;27;20044;-62
2022/03/22 00:17:51;;;;;;;37.85;23.73;;;;;;;6.15;51.23;101470.84;10595775;27;20083;-61
2022/03/22 00:22:53;;;;;;;36.15;22.23;;;;;;;6.12;51.22;101475.25;10593259;27;20047;-60
2022/03/22 00:27:56;;;;;;;39.88;24.65;;;;;;;6.03;51.42;101480.59;10594646;27;20063;-61
2022/03/22 00:33:03;;;;;;;42.65;25.27;;;;;;;5.90;51.96;101479.94;10594959;27;20054;-61
2022/03/22 00:38:13;;;;;;;32.53;21.27;;;;;;;5.79;52.61;101484.44;10594030;27;20039;-61
2022/03/22 00:43:15;;;;;;;27.13;18.85;;;;;;;5.79;52.24;101479.25;10594466;27;20039;-61
2022/03/22 00:48:17;;;;;;;34.10;21.73;;;;;;;5.73;52.21;101484.53;10575504;27;20049;-61
2022/03/22 00:53:19;;;;;;;35.85;22.92;;;;;;;5.62;52.40;101482.97;10594666;27;20047;-61
2022/03/22 00:58:21;;;;;;;33.38;20.67;;;;;;;5.59;52.39;101480.44;10594249;27;20057;-62
2022/03/22 01:03:23;;;;;;;29.38;18.35;;;;;;;5.50;52.50;101477.09;10593101;27;20298;-61
2022/03/22 01:08:25;;;;;;;30.88;20.75;;;;;;;5.45;52.65;101475.47;10593102;27;20054;-61
2022/03/22 01:13:27;;;;;;;31.27;19.67;;;;;;;5.35;52.90;101474.72;10593892;27;20050;-61
2022/03/22 01:18:29;;;;;;;25.48;18.85;;;;;;;5.23;53.12;101482.66;10575349;27;20146;-60
2022/03/22 01:23:32;;;;;;;31.92;20.42;;;;;;;5.14;53.11;101477.63;10592733;27;20046;-60
2022/03/22 01:28:34;;;;;;;29.45;19.88;;;;;;;4.88;53.46;101466.72;10591495;27;20115;-61
2022/03/22 01:33:36;;;;;;;26.65;19.20;;;;;;;4.84;53.75;101470.19;10591029;27;20055;-61
2022/03/22 01:38:37;;;;;;;26.77;18.02;;;;;;;4.81;53.71;101466.78;10591957;27;20502;-61
2022/03/22 01:43:39;;;;;;;26.92;18.52;;;;;;;4.81;53.83;101461.59;10592838;27;20633;-62
2022/03/22 01:48:41;;;;;;;25.27;18.30;;;;;;;4.72;53.89;101459.97;10592372;27;20130;-61
2022/03/22 01:53:45;;;;;;;30.00;18.95;;;;;;;4.65;53.82;101456.63;10591276;27;20390;-61
2022/03/22 01:58:47;;;;;;;25.20;18.17;;;;;;;4.56;54.03;101456.72;10592193;27;20049;-62
2022/03/22 02:09:09;;;;;;;24.27;17.40;;;;;;;4.41;54.16;101464.63;10590598;27;20403;-62
2022/03/22 02:14:10;;;;;;;25.33;18.17;;;;;;;4.34;54.28;101455.22;10592311;27;20039;-62
2022/03/22 02:19:15;;;;;;;26.63;17.30;;;;;;;4.27;54.57;101453.56;10589932;27;20047;-61
2022/03/22 02:24:16;;;;;;;25.50;18.30;;;;;;;4.20;54.66;101454.50;10592036;27;20043;-61
2022/03/22 02:29:18;;;;;;;25.50;17.75;;;;;;;4.08;54.73;101452.03;10591033;27;20054;-62
2022/03/22 02:34:20;;;;;;;26.83;17.48;;;;;;;3.99;54.90;101451.22;10591473;27;20083;-61
2022/03/22 02:39:21;;;;;;;24.55;16.77;;;;;;;3.94;55.03;101458.19;10589994;27;20051;-62
2022/03/22 02:44:23;;;;;;;24.77;17.60;;;;;;;3.74;55.28;101451.41;10591016;28;20126;-62
2022/03/22 02:49:25;;;;;;;23.25;17.02;;;;;;;3.69;55.62;101454.91;10589661;28;20483;-62
2022/03/22 02:54:27;;;;;;;26.65;17.67;;;;;;;3.64;55.51;101454.09;10591435;28;20134;-61
2022/03/22 02:59:28;;;;;;;25.23;17.95;;;;;;;3.54;55.84;101457.59;10590681;28;20396;-61
2022/03/22 03:04:30;;;;;;;24.05;17.77;;;;;;;3.51;56.00;101455.03;10597161;28;20039;-61
2022/03/22 03:09:32;;;;;;;26.05;18.17;;;;;;;3.42;56.16;101460.25;10599299;27;20130;-61
2022/03/22 03:14:39;;;;;;;24.10;17.77;;;;;;;3.29;56.30;101456.06;10604883;27;20035;-61
2022/03/22 03:19:42;;;;;;;27.23;17.80;;;;;;;3.13;56.56;101452.66;10587898;27;20043;-61
2022/03/22 03:24:44;;;;;;;26.42;18.38;;;;;;;3.10;56.78;101467.34;10607122;27;20053;-62
2022/03/22 03:29:45;;;;;;;29.27;18.05;;;;;;;3.04;56.74;101473.41;10606307;27;20081;-62
2022/03/22 03:34:47;;;;;;;24.40;17.70;;;;;;;2.97;56.91;101470.00;10605951;27;20055;-61
2022/03/22 03:39:49;;;;;;;23.95;16.63;;;;;;;2.95;56.92;101479.47;10587573;27;20043;-61
2022/03/22 03:50:11;;;;;;;28.35;17.98;;;;;;;2.76;57.16;101479.56;10597001;27;20066;-62
2022/03/22 03:55:13;;;;;;;23.65;17.58;;;;;;;2.70;57.53;101483.00;10603307;27;20083;-61
2022/03/22 04:00:15;;;;;;;25.08;17.70;;;;;;;2.64;57.69;101495.09;10604515;27;20494;-61
2022/03/22 04:05:17;;;;;;;25.58;17.05;;;;;;;2.57;57.56;101489.09;10599428;27;20065;-62
2022/03/22 04:10:19;;;;;;;25.67;18.50;;;;;;;2.49;57.82;101492.53;10596466;27;20150;-62
2022/03/22 04:15:20;;;;;;;24.17;18.42;;;;;;;2.37;58.20;101497.72;10596289;27;20251;-61
2022/03/22 04:20:22;;;;;;;29.85;17.73;;;;;;;2.35;58.04;101500.31;10577400;27;20797;-62
2022/03/22 04:25:24;;;;;;;28.15;19.05;;;;;;;2.31;58.08;101505.47;10579081;27;20406;-61
2022/03/22 04:35:45;;;;;;;24.27;17.63;;;;;;;2.17;58.27;101497.75;10594977;27;20059;-61
2022/03/22 04:40:47;;;;;;;24.77;17.52;;;;;;;2.13;58.34;101502.03;10593166;27;20058;-62
2022/03/22 04:45:53;;;;;;;25.83;17.50;;;;;;;2.02;58.25;101506.38;10595451;27;20145;-62
2022/03/22 05:01:36;;;;;;;26.10;18.08;;;;;;;1.72;58.80;101503.78;10594678;27;20410;-62
2022/03/22 05:06:38;;;;;;;26.38;18.25;;;;;;;1.73;58.95;101494.28;10594258;27;20691;-61
2022/03/22 05:11:40;;;;;;;25.83;18.92;;;;;;;1.67;58.98;101502.03;10594124;27;20051;-62
2022/03/22 05:16:43;;;;;;;30.77;20.58;;;;;;;1.61;59.19;101513.19;10595593;27;20051;-60
2022/03/22 05:21:45;;;;;;;29.45;21.38;;;;;;;1.51;59.45;101518.31;10594097;27;20043;-60
2022/03/22 05:26:47;;;;;;;27.42;20.42;;;;;;;1.58;59.40;101514.91;10594782;27;20047;-61
2022/03/22 05:31:48;;;;;;;26.70;20.40;;;;;;;1.61;59.28;101520.94;10594913;27;20306;-60
2022/03/22 05:36:50;;;;;;;29.17;19.45;;;;;;;1.43;59.25;101531.22;10590670;27;20420;-61
2022/03/22 05:41:52;;;;;;;27.65;18.45;;;;;;;1.45;59.42;101533.78;10576325;27;20051;-60
2022/03/22 05:46:56;;;;;;;24.60;17.73;;;;;;;1.58;59.32;101535.53;10593983;27;20152;-60
2022/03/22 05:51:58;;;;;;;27.20;17.95;;;;;;;1.66;59.16;101536.41;10594109;27;20134;-60
2022/03/22 05:57:00;;;;;;;26.30;18.10;;;;;;;1.76;59.01;101544.19;10593607;27;20043;-60
2022/03/22 06:02:02;;;;;;;26.83;17.30;;;;;;;1.87;59.03;101539.03;10594951;27;20462;-60
2022/03/22 06:07:04;;;;;;;29.02;18.17;;;;;;;1.98;58.74;101529.56;10594204;27;20081;-60
2022/03/22 06:12:07;;;;;;;25.95;17.88;;;;;;;2.04;58.32;101540.78;10594971;27;20078;-60
2022/03/22 06:17:08;;;;;;;25.67;16.75;;;;;;;2.06;58.46;101545.94;10593917;27;20057;-60
2022/03/22 06:22:10;;;;;;;25.13;17.55;;;;;;;2.14;58.37;101539.91;10593721;27;20119;-60
2022/03/22 06:27:17;;;;;;;24.13;17.83;;;;;;;2.21;58.30;101540.78;10593490;27;20050;-61
2022/03/22 06:32:19;;;;;;;24.55;18.08;;;;;;;2.31;58.37;101539.91;10593148;27;20051;-61
2022/03/22 06:37:21;;;;;;;28.92;19.08;;;;;;;2.40;58.18;101537.31;10593216;27;20051;-60
2022/03/22 06:42:23;;;;;;;24.38;16.95;;;;;;;2.48;58.14;101534.72;10590938;27;20082;-62
2022/03/22 06:47:25;;;;;;;28.90;18.65;;;;;;;2.67;57.87;101545.03;10572030;28;20146;-61
2022/03/22 06:52:27;;;;;;;26.52;17.85;;;;;;;2.81;57.66;101540.69;10592791;28;20134;-61
2022/03/22 06:57:31;;;;;;;27.52;17.80;;;;;;;2.89;57.48;101538.94;10590689;28;20107;-61
2022/03/22 07:02:33;;;;;;;26.75;17.92;;;;;;;3.13;57.36;101539.72;10589761;28;20495;-61
2022/03/22 07:07:36;;;;;;;26.73;17.60;;;;;;;3.31;57.17;101543.09;10591584;28;20336;-61
2022/03/22 07:13:04;;;;;;;29.92;19.42;;;;;;;3.30;57.38;101531.00;10592306;28;20093;-61
2022/03/22 07:18:08;;;;;;;27.42;19.65;;;;;;;3.36;56.90;101540.47;10592279;28;20575;-61
2022/03/22 07:23:10;;;;;;;30.80;19.77;;;;;;;3.56;56.30;101543.81;10591903;28;20882;-61
2022/03/22 07:28:12;;;;;;;25.92;19.38;;;;;;;3.62;56.70;101542.03;10566950;28;20138;-60
2022/03/22 07:33:13;;;;;;;30.55;19.70;;;;;;;3.85;56.19;101536.75;10592521;28;20130;-61
2022/03/22 07:38:15;;;;;;;29.27;19.40;;;;;;;4.06;55.90;101534.03;10592074;28;20452;-61
2022/03/22 07:43:17;;;;;;;27.42;18.63;;;;;;;4.28;56.03;101540.75;10592835;28;20047;-61
2022/03/22 07:48:19;;;;;;;25.95;18.45;;;;;;;4.50;55.73;101539.69;10590349;28;20055;-61
2022/03/22 07:53:21;;;;;;;23.58;18.30;;;;;;;5.15;54.96;101532.91;10571897;28;20075;-61
2022/03/22 07:58:23;;;;;;;28.38;19.23;;;;;;;5.90;53.57;101523.22;10596469;27;20043;-61
2022/03/22 08:03:26;;;;;;;26.75;19.65;;;;;;;6.37;52.42;101530.28;10596768;27;20095;-61
2022/03/22 08:08:29;;;;;;;26.10;19.52;;;;;;;6.98;50.90;101528.25;10597940;27;20393;-61
2022/03/22 08:13:36;;;;;;;25.15;18.10;;;;;;;7.42;50.03;101535.16;10599274;27;20067;-62
2022/03/22 08:18:38;;;;;;;27.83;17.90;;;;;;;8.00;49.12;101525.97;10598276;27;20039;-62
2022/03/22 08:23:40;;;;;;;28.38;17.58;;;;;;;8.45;47.84;101520.56;10598447;27;20494;-62
2022/03/22 08:28:42;;;;;;;28.25;16.85;;;;;;;8.84;46.52;101522.97;10596683;27;20425;-62
2022/03/22 08:33:44;;;;;;;24.63;16.73;;;;;;;9.34;43.93;101508.47;10576999;27;20051;-61
2022/03/22 08:38:46;;;;;;;25.63;16.30;;;;;;;9.75;41.89;101515.06;10596025;27;20043;-61
2022/03/22 08:43:48;;;;;;;20.92;16.13;;;;;;;9.61;41.85;101510.25;10597217;27;20321;-62
2022/03/22 08:48:52;;;;;;;25.55;15.55;;;;;;;9.84;40.45;101506.97;10596076;27;20043;-61
2022/03/22 08:53:54;;;;;;;22.75;16.45;;;;;;;10.19;39.93;101508.44;10595932;27;20046;-61
2022/03/22 08:58:56;;;;;;;25.83;15.85;;;;;;;10.31;38.99;101505.41;10596224;27;20043;-62
2022/03/22 09:09:18;;;;;;;23.23;16.20;;;;;;;10.86;37.79;101496.47;10596402;27;20170;-69
2022/03/22 09:14:20;;;;;;;21.10;15.95;;;;;;;11.19;37.97;101487.44;10592500;27;20930;-69
2022/03/22 09:19:22;;;;;;;23.08;15.90;;;;;;;11.19;37.54;101490.88;10596882;27;20047;-69
2022/03/22 09:24:24;;;;;;;21.88;16.20;;;;;;;11.42;37.04;101476.06;10596416;27;20043;-69
2022/03/22 09:29:26;;;;;;;21.63;15.23;;;;;;;11.60;35.99;101483.22;10593136;27;20407;-69
2022/03/22 09:34:28;;;;;;;23.10;15.38;;;;;;;11.83;36.23;101484.00;10596271;27;20176;-68
2022/03/22 09:39:30;;;;;;;23.42;15.43;;;;;;;12.19;35.34;101463.28;10596157;27;20049;-69
2022/03/22 09:44:32;;;;;;;25.25;14.75;;;;;;;12.50;34.84;101454.97;10595436;27;20082;-69
2022/03/22 09:49:37;;;;;;;22.30;14.25;;;;;;;12.47;34.65;101460.34;10595889;27;20058;-68
2022/03/22 09:54:39;;;;;;;21.80;14.48;;;;;;;12.45;33.72;101451.69;10595040;27;20142;-69
2022/03/22 09:59:41;;;;;;;22.98;15.07;;;;;;;12.79;32.89;101455.41;10595068;27;20058;-69
2022/03/22 10:04:43;;;;;;;25.98;14.63;;;;;;;12.59;32.58;101450.19;10594059;27;20339;-69
2022/03/22 10:09:56;;;;;;;23.23;14.02;;;;;;;12.94;32.07;101443.34;10595064;27;20057;-68
2022/03/22 10:15:18;;;;;;;19.10;13.57;;;;;;;13.27;30.67;101438.31;10594413;27;20053;-69
2022/03/22 10:20:22;;;;;;;21.95;14.35;;;;;;;13.46;31.53;101434.78;10591280;27;20055;-68
2022/03/22 10:25:25;;;;;;;21.15;13.27;;;;;;;13.30;31.11;101425.03;10575434;27;20554;-68
2022/03/22 10:30:27;;;;;;;18.63;13.32;;;;;;;13.41;30.23;101417.50;10593243;27;20138;-67
2022/03/22 10:35:32;;;;;;;20.20;12.77;;;;;;;13.58;29.78;101417.53;10572030;27;20061;-68
2022/03/22 10:40:40;;;;;;;17.52;12.85;;;;;;;13.68;30.57;101411.78;10589301;27;20317;-69
2022/03/22 10:45:54;;;;;;;19.85;13.32;;;;;;;13.89;29.74;101411.63;10590078;28;20418;-68
2022/03/22 10:50:59;;;;;;;21.35;13.55;;;;;;;13.98;30.17;101408.56;10589203;28;20095;-69
2022/03/22 10:56:04;;;;;;;19.55;12.65;;;;;;;14.00;29.46;101409.31;10589662;28;20043;-68
2022/03/22 11:01:07;;;;;;;20.75;13.70;;;;;;;13.94;29.94;101410.50;10592491;28;20062;-68
2022/03/22 11:06:09;;;;;;;18.70;13.48;;;;;;;13.87;29.50;101395.94;10592931;28;20859;-68
2022/03/22 11:11:11;;;;;;;17.90;13.50;;;;;;;13.89;30.50;101401.09;10593483;28;20055;-69
2022/03/22 11:16:15;;;;;;;18.25;12.82;;;;;;;14.08;30.45;101389.59;10594611;28;20138;-71
2022/03/22 11:21:19;;;;;;;21.40;13.10;;;;;;;14.27;30.04;101392.09;10590361;28;20490;-68
2022/03/22 11:26:22;;;;;;;18.20;12.70;;;;;;;14.20;29.83;101378.44;10589576;28;20564;-68
2022/03/22 11:31:27;;;;;;;22.35;13.98;;;;;;;14.42;29.81;101365.84;10592236;27;20138;-68
2022/03/22 11:36:53;;;;;;;21.30;13.40;;;;;;;14.43;28.54;101359.63;10598753;27;20041;-69
2022/03/22 11:47:17;;;;;;;19.00;13.00;;;;;;;14.94;28.79;101342.00;10575067;27;20059;-70
2022/03/22 11:52:22;;;;;;;23.52;12.68;;;;;;;15.08;28.72;101335.00;10584766;27;20502;-69
2022/03/22 11:57:25;;;;;;;16.80;11.43;;;;;;;15.21;28.40;101333.38;10563814;27;20130;-69
2022/03/22 12:02:30;;;;;;;16.27;11.38;;;;;;;15.27;27.51;101325.13;10584820;27;20197;-68
2022/03/22 12:07:37;;;;;;;15.43;10.77;;;;;;;15.45;27.54;101323.22;10588863;27;20899;-70
2022/03/22 12:12:49;;;;;;;16.73;10.70;;;;;;;15.68;27.36;101320.13;10591081;27;20081;-69
2022/03/22 12:17:52;;;;;;;13.48;9.32;;;;;;;15.81;26.25;101318.47;10576546;27;20573;-70
2022/03/22 12:22:59;;;;;;;13.07;9.45;;;;;;;15.79;24.64;101304.53;10594041;27;20047;-70
2022/03/22 12:28:07;;;;;;;12.70;9.65;;;;;;;15.85;24.48;101305.94;10592121;27;20138;-69
2022/03/22 12:33:13;;;;;;;11.57;9.00;;;;;;;15.85;23.57;101298.88;10588435;27;20059;-69
2022/03/22 12:38:16;;;;;;;13.45;9.07;;;;;;;15.92;23.94;101288.78;10587586;27;20047;-69
2022/03/22 12:43:19;;;;;;;14.77;9.45;;;;;;;16.05;23.88;101287.13;10594197;27;20099;-69
2022/03/22 12:48:22;;;;;;;13.07;8.35;;;;;;;16.04;23.15;101270.44;10591930;27;20043;-68
2022/03/22 12:53:23;;;;;;;11.05;8.32;;;;;;;16.44;23.76;101262.72;10589455;27;20043;-69
2022/03/22 12:58:28;;;;;;;12.10;8.52;;;;;;;16.41;23.66;101268.13;10588677;27;20080;-68
2022/03/22 13:03:30;;;;;;;11.70;8.30;;;;;;;16.36;21.76;101262.31;10586482;27;20043;-68
2022/03/22 13:19:18;;;;;;;11.82;8.15;;;;;;;16.48;22.07;101251.00;10585359;27;20054;-67
2022/03/22 13:24:26;;;;;;;12.68;7.93;;;;;;;16.67;23.19;101243.63;10588242;27;20523;-68
2022/03/22 13:29:42;;;;;;;12.98;8.13;;;;;;;16.75;21.48;101236.88;10592742;27;20050;-68
2022/03/22 13:34:48;;;;;;;12.23;8.35;;;;;;;16.79;21.96;101234.91;10595357;27;20043;-69
2022/03/22 13:40:02;;;;;;;10.93;8.10;;;;;;;16.93;21.82;101229.56;10594601;27;20088;-69
2022/03/22 13:45:10;;;;;;;11.82;8.43;;;;;;;17.01;22.37;101229.91;10595601;27;20293;-69
2022/03/22 13:50:12;;;;;;;13.02;8.07;;;;;;;17.07;21.41;101216.28;10593730;27;20047;-69
2022/03/22 13:55:22;;;;;;;11.82;7.85;;;;;;;16.97;21.08;101207.28;10595117;27;20055;-69
2022/03/22 14:00:24;;;;;;;11.68;7.78;;;;;;;16.89;21.52;101214.84;10594687;27;20147;-69
2022/03/22 14:05:26;;;;;;;12.55;7.13;;;;;;;17.15;21.63;101203.41;10595040;27;20757;-69
2022/03/22 14:10:28;;;;;;;12.98;8.10;;;;;;;17.18;22.02;101207.63;10593446;27;20047;-69
2022/03/22 14:15:31;;;;;;;10.80;7.72;;;;;;;17.28;22.00;101198.13;10593794;27;20047;-69
2022/03/22 14:20:32;;;;;;;10.85;7.88;;;;;;;17.28;21.96;101198.97;10594116;27;20121;-69
2022/03/22 14:25:35;;;;;;;11.90;7.03;;;;;;;17.40;21.13;101190.25;10558775;27;20036;-68
2022/03/22 14:30:38;;;;;;;9.70;7.05;;;;;;;17.38;20.52;101196.59;10594019;27;20055;-69
2022/03/22 14:35:46;;;;;;;8.55;6.43;;;;;;;17.42;20.53;101191.00;10593655;27;20502;-68
2022/03/22 14:40:51;;;;;;;9.63;6.43;;;;;;;17.46;21.60;101189.00;10594144;27;20046;-69
2022/03/22 14:45:56;;;;;;;10.50;6.10;;;;;;;17.54;21.45;101179.59;10592777;27;20061;-68
2022/03/22 14:51:00;;;;;;;12.63;6.63;;;;;;;17.57;20.41;101179.34;10592815;28;20053;-68
2022/03/22 15:01:28;;;;;;;9.45;6.35;;;;;;;17.55;21.28;101172.47;10593765;28;20047;-68
2022/03/22 15:06:32;;;;;;;11.90;6.63;;;;;;;17.59;20.66;101169.50;10595484;27;20588;-68
2022/03/22 15:11:34;;;;;;;10.63;5.97;;;;;;;17.63;19.18;101163.06;10600464;27;20623;-69
2022/03/22 15:16:36;;;;;;;11.30;5.97;;;;;;;17.60;19.52;101163.28;10583038;27;20100;-69
2022/03/22 15:21:38;;;;;;;10.15;6.00;;;;;;;17.49;19.23;101157.88;10582462;27;20059;-67
2022/03/22 15:26:40;;;;;;;11.63;6.63;;;;;;;17.46;19.05;101160.75;10583604;27;20050;-68
2022/03/22 15:31:42;;;;;;;11.13;6.75;;;;;;;17.60;19.65;101152.69;10600369;27;20514;-68
2022/03/22 15:36:44;;;;;;;10.48;6.32;;;;;;;17.81;20.17;101145.88;10583185;27;20133;-68
2022/03/22 15:41:45;;;;;;;13.55;7.10;;;;;;;17.64;19.75;101138.31;10600755;27;20129;-68
2022/03/22 15:46:48;;;;;;;9.77;6.55;;;;;;;17.41;20.49;101143.47;10600610;27;20080;-68
2022/03/22 15:51:49;;;;;;;11.48;7.05;;;;;;;17.28;20.57;101130.22;10598591;27;20240;-69
2022/03/22 15:56:51;;;;;;;10.38;7.00;;;;;;;17.24;21.47;101136.66;10599632;27;20491;-67
2022/03/22 16:01:53;;;;;;;12.98;7.20;;;;;;;17.09;20.79;101129.78;10600692;27;20129;-67
2022/03/22 16:06:55;;;;;;;13.20;6.90;;;;;;;17.04;21.43;101132.75;10599420;27;20079;-68
2022/03/22 16:11:57;;;;;;;10.35;7.10;;;;;;;16.95;21.24;101137.81;10597056;27;20092;-69
2022/03/22 16:16:59;;;;;;;11.55;6.93;;;;;;;16.81;21.97;101129.97;10598021;27;20046;-67
2022/03/22 16:22:01;;;;;;;11.82;6.80;;;;;;;16.65;21.49;101127.47;10597391;27;20147;-68
2022/03/22 16:27:03;;;;;;;14.00;6.78;;;;;;;16.69;22.09;101125.50;10598504;27;21012;-68
2022/03/22 16:36:47;;;;;;;17.73;7.63;;;;;;;16.60;22.44;101129.59;10597154;27;20051;-68
2022/03/22 16:37:46;;;;;;;11.75;6.82;;;;;;;16.47;21.92;101138.41;10594251;27;20061;-69
2022/03/22 16:42:50;;;;;;;12.80;6.90;;;;;;;16.35;21.91;101132.09;10592363;27;20335;-69
2022/03/22 16:47:52;;;;;;;13.57;7.18;;;;;;;16.21;22.26;101148.81;10598508;27;20145;-69
2022/03/22 16:52:55;;;;;;;11.63;6.97;;;;;;;16.03;22.96;101143.84;10596435;27;20517;-68
2022/03/22 16:57:57;;;;;;;12.55;6.85;;;;;;;15.87;22.74;101146.63;10597178;27;20127;-68
2022/03/22 17:02:58;;;;;;;10.93;6.53;;;;;;;15.69;23.79;101146.91;10596221;27;20151;-69
2022/03/22 17:08:00;;;;;;;13.88;7.00;;;;;;;15.52;23.70;101161.13;10596776;27;20046;-69
2022/03/22 17:13:03;;;;;;;14.27;7.68;;;;;;;15.30;24.00;101153.66;10594619;27;20050;-68
2022/03/22 17:18:05;;;;;;;13.98;7.28;;;;;;;15.10;24.05;101158.41;10595664;27;20054;-69
2022/03/22 17:23:07;;;;;;;12.60;7.35;;;;;;;14.93;24.20;101162.00;10595532;27;20421;-69
2022/03/22 17:28:09;;;;;;;10.20;6.75;;;;;;;14.64;25.07;101159.34;10595238;27;20145;-69
2022/03/22 17:33:11;;;;;;;12.15;7.38;;;;;;;14.36;24.98;101158.25;10593670;27;20059;-69
2022/03/22 17:38:13;;;;;;;10.45;6.75;;;;;;;14.07;25.50;101174.78;10594848;27;20043;-69
2022/03/22 17:43:15;;;;;;;10.75;6.68;;;;;;;13.77;26.35;101179.94;10594491;27;20083;-69
2022/03/22 17:48:17;;;;;;;12.88;7.53;;;;;;;13.48;26.10;101179.75;10595073;27;20421;-69
2022/03/22 17:53:18;;;;;;;20.60;10.27;;;;;;;13.28;26.98;101183.38;10595264;27;20157;-67
2022/03/22 17:58:20;;;;;;;14.13;9.02;;;;;;;13.01;27.12;101187.38;10594234;27;20130;-67
2022/03/22 18:03:22;;;;;;;12.90;7.05;;;;;;;12.77;27.25;101192.09;10589547;27;20508;-67
2022/03/22 18:08:25;;;;;;;14.82;7.18;;;;;;;12.53;27.60;101197.66;10591337;27;20058;-68
2022/03/22 18:13:27;;;;;;;12.32;7.93;;;;;;;12.29;28.91;101204.06;10575256;27;20043;-68
2022/03/22 18:18:29;;;;;;;16.75;9.30;;;;;;;11.99;29.27;101203.66;10587447;27;20043;-68
2022/03/22 18:23:31;;;;;;;16.38;10.98;;;;;;;11.73;30.10;101214.47;10588642;27;20096;-68
2022/03/22 18:28:35;;;;;;;20.35;11.88;;;;;;;11.50;31.02;101207.59;10592074;27;20138;-68
2022/03/22 18:33:37;;;;;;;14.18;9.05;;;;;;;11.28;32.02;101214.69;10586756;27;20491;-68
2022/03/22 18:38:39;;;;;;;16.15;10.48;;;;;;;11.11;32.29;101215.38;10590083;27;20047;-68
2022/03/22 18:43:41;;;;;;;16.00;10.05;;;;;;;10.97;32.60;101228.16;10588334;27;20454;-68
2022/03/22 18:48:44;;;;;;;15.85;9.13;;;;;;;10.86;32.88;101224.28;10588727;28;20151;-68
2022/03/22 18:53:45;;;;;;;17.92;9.55;;;;;;;10.72;33.41;101227.47;10589156;28;20047;-67
2022/03/22 18:58:47;;;;;;;14.70;9.05;;;;;;;10.53;33.98;101231.72;10590562;28;20602;-67
2022/03/22 19:03:49;;;;;;;12.48;8.40;;;;;;;10.28;34.43;101233.56;10572276;28;20141;-67
2022/03/22 19:08:51;;;;;;;11.02;7.63;;;;;;;10.08;34.74;101238.69;10589284;28;20043;-67
2022/03/22 19:13:54;;;;;;;13.43;7.72;;;;;;;9.94;35.20;101238.34;10591849;28;20537;-67
2022/03/22 19:18:57;;;;;;;13.73;7.30;;;;;;;9.85;35.32;101233.47;10592190;28;20066;-67
2022/03/22 19:23:59;;;;;;;13.15;6.97;;;;;;;9.58;36.18;101243.91;10591070;28;20162;-61
2022/03/22 19:29:04;;;;;;;14.07;7.93;;;;;;;9.43;36.78;101244.47;10592671;28;20140;-61
2022/03/22 19:34:06;;;;;;;14.55;8.20;;;;;;;9.28;36.68;101247.59;10592093;28;20388;-61
2022/03/22 19:39:08;;;;;;;14.60;7.82;;;;;;;9.21;37.31;101256.53;10591667;28;20049;-61
2022/03/22 19:44:09;;;;;;;11.75;7.70;;;;;;;9.10;37.76;101263.84;10592972;28;20360;-61
2022/03/22 19:49:22;;;;;;;12.35;8.20;;;;;;;8.91;38.12;101254.94;10591624;28;20051;-62
2022/03/22 19:54:25;;;;;;;16.42;8.55;;;;;;;8.81;38.36;101254.34;10597025;27;20039;-61
2022/03/22 19:59:29;;;;;;;13.68;8.50;;;;;;;8.68;38.62;101268.69;10599818;27;20403;-61
2022/03/22 20:04:31;;;;;;;14.43;8.32;;;;;;;8.59;38.62;101262.88;10597893;27;20518;-61
2022/03/22 20:09:34;;;;;;;16.13;9.77;;;;;;;8.44;39.48;101265.97;10599940;27;20130;-61
2022/03/22 20:14:37;;;;;;;16.73;9.27;;;;;;;8.39;39.74;101270.44;10598061;27;20121;-61
2022/03/22 20:19:39;;;;;;;13.98;8.25;;;;;;;8.32;39.61;101268.94;10597929;27;20046;-62
2022/03/22 20:24:41;;;;;;;12.18;7.85;;;;;;;8.14;40.15;101272.91;10598383;27;20047;-61
2022/03/22 20:29:43;;;;;;;19.10;11.30;;;;;;;8.00;40.23;101278.50;10598347;27;20050;-61
2022/03/22 20:34:48;;;;;;;18.27;10.05;;;;;;;7.82;40.83;101273.78;10598424;27;20048;-61
2022/03/22 20:39:50;;;;;;;13.77;8.73;;;;;;;7.79;41.20;101280.84;10597598;27;20112;-62
2022/03/22 20:44:54;;;;;;;16.52;9.93;;;;;;;7.77;41.26;101282.63;10596144;27;20476;-62
2022/03/22 20:49:56;;;;;;;14.60;9.40;;;;;;;7.37;41.50;101279.31;10596100;27;20483;-61
2022/03/22 20:54:59;;;;;;;16.48;10.20;;;;;;;7.15;42.21;101292.88;10595955;27;20157;-63
2022/03/22 21:00:01;;;;;;;14.88;9.35;;;;;;;7.19;42.33;101291.91;10595595;27;20784;-62
2022/03/22 21:05:04;;;;;;;13.02;8.73;;;;;;;7.14;42.62;101295.53;10594033;27;20043;-62
2022/03/22 21:10:06;;;;;;;11.63;8.73;;;;;;;6.99;42.81;101294.16;10594464;27;20437;-63
2022/03/22 21:15:08;;;;;;;13.60;8.45;;;;;;;6.85;43.63;101310.94;10595066;27;20111;-63
2022/03/22 21:20:11;;;;;;;16.15;8.57;;;;;;;6.84;43.66;101309.22;10594815;27;20491;-63
2022/03/22 21:25:20;;;;;;;17.98;9.50;;;;;;;6.66;43.81;101299.25;10595371;27;20450;-63
2022/03/22 21:30:27;;;;;;;13.85;9.52;;;;;;;6.52;44.06;101302.16;10595281;27;20055;-63
2022/03/22 21:35:31;;;;;;;16.92;9.88;;;;;;;6.52;44.24;101307.34;10594730;27;20051;-62
2022/03/22 21:40:33;;;;;;;16.27;9.85;;;;;;;6.47;44.29;101303.97;10594125;27;20140;-62
2022/03/22 21:45:35;;;;;;;13.02;9.23;;;;;;;6.27;44.92;101301.81;10593638;27;20150;-62
2022/03/22 21:50:39;;;;;;;16.65;9.75;;;;;;;6.22;45.16;101298.44;10575577;27;20058;-62
2022/03/22 21:55:40;;;;;;;17.55;10.13;;;;;;;6.07;45.03;101303.91;10592541;27;20069;-62
2022/03/22 22:00:46;;;;;;;16.85;10.10;;;;;;;6.06;45.51;101302.19;10593533;27;20057;-62
2022/03/22 22:05:49;;;;;;;20.17;11.18;;;;;;;5.99;45.38;101305.81;10561009;27;20046;-62
2022/03/22 22:10:51;;;;;;;17.50;11.23;;;;;;;5.80;45.81;101301.84;10593851;27;20081;-62
2022/03/22 22:15:52;;;;;;;19.15;11.13;;;;;;;5.70;46.29;101304.63;10591817;27;20047;-62
2022/03/22 22:20:54;;;;;;;16.83;10.77;;;;;;;5.56;46.47;101299.69;10592187;27;20372;-62
2022/03/22 22:25:56;;;;;;;15.90;10.13;;;;;;;5.48;46.68;101314.53;10593072;27;20043;-62
2022/03/22 22:30:58;;;;;;;15.75;9.88;;;;;;;5.25;47.37;101303.66;10591553;27;20050;-62
2022/03/22 22:36:00;;;;;;;15.30;10.35;;;;;;;5.20;47.35;101311.53;10591652;27;20078;-62
2022/03/22 22:41:05;;;;;;;20.05;10.60;;;;;;;5.15;47.66;101307.28;10593081;27;20068;-61
2022/03/22 22:46:08;;;;;;;15.93;9.93;;;;;;;5.06;47.98;101300.53;10591755;27;20047;-62
2022/03/22 22:51:10;;;;;;;14.02;9.90;;;;;;;5.03;48.06;101307.47;10592197;28;20107;-63
2022/03/22 22:56:12;;;;;;;19.67;11.27;;;;;;;4.94;48.11;101307.63;10592286;28;20061;-62
2022/03/22 23:01:17;;;;;;;20.70;12.50;;;;;;;4.84;48.51;101306.91;10591000;28;20045;-62
2022/03/22 23:10:08;;;;;;;19.42;11.70;;;;;;;4.70;48.87;101303.66;10592741;28;20086;-62
2022/03/22 23:11:41;;;;;;;16.67;11.63;;;;;;;4.67;49.06;101309.75;10592432;28;20177;-62
2022/03/22 23:16:42;;;;;;;14.65;10.77;;;;;;;4.60;49.26;101308.09;10592340;28;20043;-62
2022/03/22 23:21:44;;;;;;;14.90;10.38;;;;;;;4.50;49.43;101303.94;10590211;28;20046;-62
2022/03/22 23:26:48;;;;;;;17.98;10.63;;;;;;;4.42;49.50;101308.34;10575185;27;20138;-62
2022/03/22 23:31:49;;;;;;;14.05;10.85;;;;;;;4.38;49.88;101306.69;10599219;27;20055;-62
2022/03/22 23:36:52;;;;;;;17.80;12.20;;;;;;;4.35;49.92;101306.69;10600034;27;20143;-62
2022/03/22 23:41:54;;;;;;;14.73;11.55;;;;;;;4.24;50.15;101316.34;10599195;27;20142;-62
2022/03/22 23:46:56;;;;;;;18.25;11.20;;;;;;;4.19;50.29;101309.53;10599319;27;20047;-62
2022/03/22 23:51:58;;;;;;;16.23;10.90;;;;;;;4.14;50.37;101306.97;10599166;27;20513;-63